Time;durP1;ratioP1;P1;durP2;ratioP2;P2;SDS_P1;SDS_P2;PMS_P1;PMS_P2;Temp;Humidity;BMP_temperature;BMP_pressure;BME280_temperature;BME280_humidity;BME280_pressure;Samples;Min_cycle;Max_cycle;Signal;HPM_P1;HPM_P2
2022/12/21 00:01:15;;;;;;;6.35;6.15;;;2.20;99.90;;;;;;5016719;28;20021;-74
2022/12/21 00:03:42;;;;;;;7.18;6.97;;;2.20;99.90;;;;;;5002465;28;20029;-74
2022/12/21 00:06:08;;;;;;;7.57;7.28;;;2.20;99.90;;;;;;5001674;28;20026;-74
2022/12/21 00:08:36;;;;;;;7.35;7.05;;;2.40;99.90;;;;;;5026386;28;20033;-74
2022/12/21 00:11:01;;;;;;;6.18;5.97;;;2.60;99.90;;;;;;5017878;28;20117;-76
2022/12/21 00:13:27;;;;;;;6.63;6.43;;;2.60;99.90;;;;;;5008160;28;20119;-75
2022/12/21 00:16:01;;;;;;;7.25;7.05;;;2.70;99.90;;;;;;5000055;28;20476;-75
2022/12/21 00:18:26;;;;;;;6.25;6.05;;;2.90;99.90;;;;;;5024656;28;20061;-74
2022/12/21 00:21:01;;;;;;;5.40;5.20;;;3.00;99.90;;;;;;5013736;28;20495;-73
2022/12/21 00:23:27;;;;;;;6.50;6.30;;;3.20;99.90;;;;;;5016845;28;20034;-73
2022/12/21 00:25:53;;;;;;;6.90;6.60;;;3.30;99.90;;;;;;5034630;28;20104;-74
2022/12/21 00:28:18;;;;;;;6.13;5.93;;;3.30;99.90;;;;;;5034456;28;20175;-75
2022/12/21 00:30:44;;;;;;;6.30;6.10;;;3.30;99.90;;;;;;5016628;28;20029;-74
2022/12/21 00:33:10;;;;;;;6.55;6.35;;;3.30;99.90;;;;;;5014810;28;20040;-74
2022/12/21 00:35:36;;;;;;;6.20;6.00;;;3.30;99.90;;;;;;5010129;28;20037;-75
2022/12/21 00:38:01;;;;;;;6.88;6.68;;;3.30;99.90;;;;;;5004416;28;20060;-75
2022/12/21 00:40:27;;;;;;;6.43;6.22;;;3.30;99.90;;;;;;5027908;28;20114;-74
2022/12/21 00:42:53;;;;;;;7.10;6.90;;;3.30;99.90;;;;;;5007628;28;20052;-75
2022/12/21 00:45:18;;;;;;;7.03;6.82;;;3.50;99.90;;;;;;5017089;28;20022;-75
2022/12/21 00:47:44;;;;;;;7.43;7.15;;;3.60;99.90;;;;;;5014439;28;20026;-75
2022/12/21 00:50:09;;;;;;;6.00;5.80;;;3.40;99.90;;;;;;5014466;28;20040;-75
2022/12/21 00:52:35;;;;;;;6.80;6.60;;;3.40;99.90;;;;;;5024962;28;20032;-75
2022/12/21 00:55:00;;;;;;;6.88;6.68;;;3.40;99.90;;;;;;5020949;28;20029;-75
2022/12/21 00:57:27;;;;;;;7.78;7.47;;;3.50;99.90;;;;;;5023697;28;20037;-74
2022/12/21 00:59:53;;;;;;;6.50;6.30;;;3.40;99.90;;;;;;5009911;28;20109;-74
2022/12/21 01:02:19;;;;;;;7.05;6.85;;;3.50;99.90;;;;;;5006885;28;20102;-73
2022/12/21 01:04:44;;;;;;;6.18;5.97;;;3.50;99.90;;;;;;5020648;28;20075;-74
2022/12/21 01:07:10;;;;;;;7.95;7.50;;;3.60;99.90;;;;;;5023603;28;20025;-73
2022/12/21 01:09:35;;;;;;;6.50;6.30;;;3.60;99.90;;;;;;5014055;28;20022;-73
2022/12/21 01:12:01;;;;;;;7.95;7.65;;;3.70;99.90;;;;;;5014184;28;20020;-73
2022/12/21 01:14:26;;;;;;;8.07;7.78;;;3.60;99.90;;;;;;5013962;28;20115;-73
2022/12/21 01:16:52;;;;;;;7.18;6.97;;;3.60;99.90;;;;;;5004962;28;20484;-73
2022/12/21 01:19:17;;;;;;;8.38;8.07;;;3.60;99.90;;;;;;5020366;28;20032;-73
2022/12/21 01:21:43;;;;;;;7.10;6.90;;;3.60;99.90;;;;;;5005630;28;20080;-74
2022/12/21 01:24:11;;;;;;;7.63;7.35;;;3.70;99.90;;;;;;5027119;28;20400;-74
2022/12/21 01:26:37;;;;;;;8.52;8.23;;;3.60;99.90;;;;;;5006397;28;20021;-74
2022/12/21 01:29:02;;;;;;;7.00;6.80;;;3.70;99.90;;;;;;5002513;28;20018;-74
2022/12/21 01:31:28;;;;;;;8.27;7.97;;;3.60;99.90;;;;;;5023750;28;20026;-75
2022/12/21 01:33:53;;;;;;;9.15;8.85;;;3.60;99.90;;;;;;5026794;28;20447;-74
2022/12/21 01:36:19;;;;;;;8.30;8.00;;;3.70;99.90;;;;;;5023345;28;20033;-74
2022/12/21 01:38:46;;;;;;;8.05;7.75;;;3.70;99.90;;;;;;5019971;28;20029;-74
2022/12/21 01:41:17;;;;;;;7.63;7.32;;;3.70;99.90;;;;;;5023932;28;20037;-74
2022/12/21 01:43:45;;;;;;;7.95;7.65;;;3.70;99.90;;;;;;5026551;28;20476;-74
2022/12/21 01:46:36;;;;;;;8.07;7.78;;;3.80;99.90;;;;;;5024235;28;20108;-74
2022/12/21 01:49:04;;;;;;;9.48;9.07;;;3.70;99.90;;;;;;5001330;28;20523;-74
2022/12/21 01:51:35;;;;;;;11.20;10.80;;;3.70;99.90;;;;;;5002018;28;20751;-75
2022/12/21 01:54:06;;;;;;;11.32;10.73;;;3.80;99.90;;;;;;5033029;28;20047;-74
2022/12/21 01:56:34;;;;;;;11.85;11.23;;;3.70;99.90;;;;;;5032919;28;20024;-75
2022/12/21 01:59:09;;;;;;;8.57;8.27;;;3.90;99.90;;;;;;5023187;28;20104;-75
2022/12/21 02:01:35;;;;;;;8.90;8.60;;;3.90;99.90;;;;;;5017266;28;20491;-75
2022/12/21 02:04:01;;;;;;;10.95;10.55;;;4.00;99.90;;;;;;5022113;28;20088;-74
2022/12/21 02:06:34;;;;;;;8.27;7.97;;;4.00;99.90;;;;;;5012949;28;20045;-75
2022/12/21 02:09:01;;;;;;;10.80;10.05;;;3.90;99.90;;;;;;5024312;28;20022;-75
2022/12/21 02:11:27;;;;;;;9.30;8.90;;;3.90;99.90;;;;;;4995999;28;20380;-73
2022/12/21 02:13:52;;;;;;;8.20;7.90;;;4.00;99.90;;;;;;5012975;28;20030;-75
2022/12/21 02:16:26;;;;;;;8.50;8.20;;;4.00;99.90;;;;;;5016979;28;20612;-75
2022/12/21 02:19:09;;;;;;;8.23;7.93;;;4.00;99.90;;;;;;5018628;28;20037;-75
2022/12/21 02:21:40;;;;;;;9.60;9.20;;;4.00;99.90;;;;;;5022330;28;20025;-75
2022/12/21 02:24:18;;;;;;;9.75;9.45;;;4.10;99.90;;;;;;5014574;28;20123;-74
2022/12/21 02:27:09;;;;;;;9.23;8.93;;;4.10;99.90;;;;;;5032457;28;20021;-75
2022/12/21 02:29:59;;;;;;;10.30;9.85;;;4.10;99.90;;;;;;5014135;28;20400;-75
2022/12/21 02:33:01;;;;;;;10.68;10.27;;;4.10;99.90;;;;;;5027427;28;20431;-75
2022/12/21 02:35:52;;;;;;;11.07;10.45;;;4.30;99.90;;;;;;5007848;28;20032;-75
2022/12/21 02:38:20;;;;;;;10.80;10.40;;;4.20;99.90;;;;;;5012164;28;20519;-72
2022/12/21 02:41:04;;;;;;;10.52;10.13;;;4.10;99.90;;;;;;5012464;28;20472;-73
2022/12/21 02:44:15;;;;;;;9.50;9.20;;;4.20;99.90;;;;;;5012251;28;20108;-73
2022/12/21 02:47:09;;;;;;;15.93;14.82;;;4.10;99.90;;;;;;5015224;28;20032;-74
2022/12/21 02:49:57;;;;;;;12.77;12.05;;;4.20;99.90;;;;;;5032064;28;20100;-74
2022/12/21 02:52:41;;;;;;;11.80;11.30;;;4.20;99.90;;;;;;5022553;28;20495;-76
2022/12/21 02:55:11;;;;;;;10.20;9.82;;;4.10;99.90;;;;;;5013314;28;20037;-75
2022/12/21 02:57:39;;;;;;;10.75;10.35;;;4.20;99.90;;;;;;5018955;28;20033;-75
2022/12/21 03:00:09;;;;;;;11.07;10.68;;;4.20;99.90;;;;;;4984561;28;20403;-74
2022/12/21 03:06:33;;;;;;;11.85;11.45;;;4.30;99.90;;;;;;5025584;28;20031;-75
2022/12/21 03:09:17;;;;;;;11.70;11.23;;;4.30;99.90;;;;;;5024800;28;20024;-75
2022/12/21 03:12:00;;;;;;;10.80;10.40;;;4.30;99.90;;;;;;5012219;28;20052;-75
2022/12/21 03:14:26;;;;;;;11.20;10.75;;;4.30;99.90;;;;;;5007620;28;20057;-76
2022/12/21 03:16:57;;;;;;;11.45;11.05;;;4.30;99.90;;;;;;5022020;28;20080;-74
2022/12/21 03:19:40;;;;;;;12.45;11.77;;;4.30;99.90;;;;;;5031687;28;20025;-74
2022/12/21 03:22:13;;;;;;;10.60;10.20;;;4.30;99.90;;;;;;5031622;28;20026;-74
2022/12/21 03:24:44;;;;;;;11.48;10.98;;;4.30;99.90;;;;;;5013821;28;20121;-74
2022/12/21 03:27:18;;;;;;;12.70;12.20;;;4.40;99.90;;;;;;5017110;28;20392;-74
2022/12/21 03:29:50;;;;;;;12.90;12.30;;;4.30;99.90;;;;;;5002917;28;20567;-74
2022/12/21 03:32:31;;;;;;;13.18;12.55;;;4.50;99.90;;;;;;5018310;28;20018;-74
2022/12/21 03:34:58;;;;;;;13.82;13.32;;;4.50;99.90;;;;;;5013789;28;20495;-74
2022/12/21 03:37:32;;;;;;;14.68;13.52;;;4.40;99.90;;;;;;4995840;28;20365;-74
2022/12/21 03:40:06;;;;;;;15.75;14.90;;;4.50;99.90;;;;;;4994221;28;20057;-75
2022/12/21 03:42:35;;;;;;;15.77;14.80;;;4.60;99.90;;;;;;4984921;28;20033;-74
2022/12/21 03:45:08;;;;;;;11.75;11.35;;;4.60;99.90;;;;;;4997994;28;20022;-74
2022/12/21 03:47:43;;;;;;;13.57;13.07;;;4.60;99.90;;;;;;5002027;28;20511;-75
2022/12/21 03:50:14;;;;;;;12.18;11.68;;;4.60;99.90;;;;;;5002197;28;20113;-73
2022/12/21 03:52:51;;;;;;;14.55;14.05;;;4.60;99.90;;;;;;5025058;28;20026;-73
2022/12/21 03:55:26;;;;;;;17.13;16.42;;;4.60;99.90;;;;;;5035196;28;20030;-73
2022/12/21 03:57:53;;;;;;;14.23;13.63;;;4.80;99.90;;;;;;5005363;28;20022;-73
2022/12/21 04:00:19;;;;;;;16.48;15.77;;;4.70;99.90;;;;;;5015518;28;20384;-73
2022/12/21 04:02:53;;;;;;;14.75;14.00;;;4.80;99.90;;;;;;4997704;28;20025;-74
2022/12/21 04:05:35;;;;;;;15.52;14.93;;;4.70;99.90;;;;;;5008527;28;20121;-74
2022/12/21 04:08:01;;;;;;;15.02;14.43;;;4.70;99.90;;;;;;5021788;28;20745;-74
2022/12/21 04:10:27;;;;;;;15.63;14.93;;;4.70;99.90;;;;;;5006142;28;20022;-74
2022/12/21 04:12:53;;;;;;;16.25;15.65;;;4.70;99.90;;;;;;5015327;28;20036;-74
2022/12/21 04:18:12;;;;;;;15.18;14.60;;;4.70;99.90;;;;;;5027061;28;20041;-73
2022/12/21 04:20:38;;;;;;;15.05;14.55;;;4.80;99.90;;;;;;4997318;28;20030;-73
2022/12/21 04:28:32;;;;;;;14.95;14.45;;;4.80;99.90;;;;;;5027574;28;20083;-74
2022/12/21 04:31:00;;;;;;;15.43;14.82;;;4.80;99.90;;;;;;5028550;28;20443;-73
2022/12/21 04:33:28;;;;;;;16.08;15.48;;;4.80;99.90;;;;;;5014707;28;20030;-73
2022/12/21 04:38:41;;;;;;;18.23;17.52;;;4.90;99.90;;;;;;5015305;28;20545;-73
2022/12/21 04:41:07;;;;;;;16.90;16.30;;;4.80;99.90;;;;;;5024161;28;20042;-73
2022/12/21 04:43:36;;;;;;;16.70;15.88;;;4.80;99.90;;;;;;5013701;28;20394;-73
2022/12/21 04:46:03;;;;;;;15.02;14.43;;;4.80;99.90;;;;;;5024695;28;20021;-73
2022/12/21 04:48:29;;;;;;;17.48;16.77;;;5.00;99.90;;;;;;5030713;28;20022;-75
2022/12/21 04:50:55;;;;;;;15.43;14.85;;;4.90;99.90;;;;;;5007309;28;20025;-74
2022/12/21 04:53:21;;;;;;;17.40;16.80;;;5.00;99.90;;;;;;5020554;28;20075;-75
2022/12/21 04:55:47;;;;;;;16.15;15.55;;;4.90;99.90;;;;;;5006421;28;20076;-74
2022/12/21 04:58:13;;;;;;;16.60;15.90;;;5.00;99.90;;;;;;5030855;28;20021;-72
2022/12/21 05:00:38;;;;;;;18.60;17.83;;;4.80;99.90;;;;;;5034193;28;20171;-73
2022/12/21 05:03:04;;;;;;;16.70;16.00;;;5.00;99.90;;;;;;5000112;28;20029;-73
2022/12/21 05:05:30;;;;;;;17.75;17.05;;;5.00;99.90;;;;;;4996620;28;20482;-75
2022/12/21 05:07:55;;;;;;;18.90;18.20;;;4.90;99.90;;;;;;4996424;28;20554;-75
2022/12/21 05:10:21;;;;;;;18.50;17.70;;;4.90;99.90;;;;;;5005912;28;20484;-76
2022/12/21 05:12:47;;;;;;;17.92;17.23;;;5.00;99.90;;;;;;5014146;28;20045;-74
2022/12/21 05:15:13;;;;;;;18.15;17.45;;;5.00;99.90;;;;;;4996518;28;20030;-76
2022/12/21 05:17:39;;;;;;;17.77;17.15;;;5.00;99.90;;;;;;5025495;28;20449;-74
2022/12/21 05:20:06;;;;;;;16.80;16.20;;;4.90;99.90;;;;;;5024254;28;20040;-74
2022/12/21 05:22:31;;;;;;;18.40;17.50;;;5.00;99.90;;;;;;5020327;28;20113;-74
2022/12/21 05:24:58;;;;;;;19.67;18.80;;;5.00;99.90;;;;;;5015842;28;20480;-74
2022/12/21 05:27:23;;;;;;;18.98;17.88;;;5.00;99.90;;;;;;5016352;28;20616;-73
2022/12/21 05:29:49;;;;;;;17.48;16.88;;;5.00;99.90;;;;;;5005790;28;20025;-77
2022/12/21 05:32:14;;;;;;;19.35;18.55;;;5.00;99.90;;;;;;5013748;28;20065;-75
2022/12/21 05:34:40;;;;;;;20.35;19.10;;;5.10;99.90;;;;;;5018827;28;20420;-75
2022/12/21 05:37:06;;;;;;;19.45;18.67;;;5.10;99.90;;;;;;5012781;28;20033;-74
2022/12/21 05:39:31;;;;;;;19.70;18.98;;;5.10;99.90;;;;;;5033370;28;20132;-75
2022/12/21 05:41:57;;;;;;;17.98;17.27;;;5.00;99.90;;;;;;5020017;28;20387;-74
2022/12/21 05:44:22;;;;;;;17.73;17.02;;;5.00;99.90;;;;;;5033104;28;20484;-75
2022/12/21 05:46:48;;;;;;;19.33;18.52;;;5.10;99.90;;;;;;5033018;28;20091;-75
2022/12/21 05:49:13;;;;;;;19.25;18.48;;;5.10;99.90;;;;;;5015365;28;20589;-74
2022/12/21 05:51:39;;;;;;;19.77;18.70;;;5.10;99.90;;;;;;5032997;28;20096;-74
2022/12/21 05:54:04;;;;;;;21.90;20.77;;;5.20;99.90;;;;;;5015185;28;20034;-73
2022/12/21 05:56:30;;;;;;;18.17;17.48;;;5.10;99.90;;;;;;5015157;28;20030;-74
2022/12/21 05:58:55;;;;;;;20.73;19.75;;;5.10;99.90;;;;;;5032937;28;20025;-74
2022/12/21 06:01:21;;;;;;;20.38;19.65;;;5.10;99.90;;;;;;5030316;28;20037;-75
2022/12/21 06:03:47;;;;;;;19.00;18.30;;;5.10;99.90;;;;;;5003653;28;20092;-76
2022/12/21 06:06:15;;;;;;;20.00;19.10;;;5.10;99.90;;;;;;5002121;28;20084;-76
2022/12/21 06:08:41;;;;;;;22.40;21.10;;;5.10;99.90;;;;;;5022952;28;20403;-74
2022/12/21 06:11:12;;;;;;;22.63;21.73;;;5.10;99.90;;;;;;5016531;28;20030;-75
2022/12/21 06:13:37;;;;;;;23.20;22.30;;;5.10;99.90;;;;;;5022191;28;20091;-74
2022/12/21 06:16:20;;;;;;;20.08;19.38;;;5.10;99.90;;;;;;5008546;28;20475;-75
2022/12/21 06:18:46;;;;;;;20.30;19.60;;;5.20;99.90;;;;;;5004788;28;20053;-75
2022/12/21 06:21:13;;;;;;;20.20;19.50;;;5.20;99.90;;;;;;5018926;28;20467;-75
2022/12/21 06:23:40;;;;;;;19.90;19.17;;;5.20;99.90;;;;;;5019943;28;20092;-76
2022/12/21 06:26:07;;;;;;;20.08;19.38;;;5.20;99.90;;;;;;5026151;28;20018;-76
2022/12/21 06:28:34;;;;;;;20.08;19.38;;;5.20;99.90;;;;;;5012610;28;20029;-75
2022/12/21 06:31:05;;;;;;;20.02;19.23;;;5.30;99.90;;;;;;5008065;28;20028;-76
2022/12/21 06:33:31;;;;;;;21.58;20.77;;;5.30;99.90;;;;;;5025731;28;20086;-76
2022/12/21 06:35:57;;;;;;;20.25;19.45;;;5.30;99.90;;;;;;5012757;28;20033;-76
2022/12/21 06:38:24;;;;;;;19.83;19.02;;;5.40;99.90;;;;;;5007754;28;20036;-77
2022/12/21 06:40:57;;;;;;;21.02;20.15;;;5.40;99.90;;;;;;5012434;28;20097;-75
2022/12/21 06:43:26;;;;;;;19.90;19.17;;;5.40;99.90;;;;;;5012461;28;20065;-76
2022/12/21 06:45:59;;;;;;;21.40;20.50;;;5.40;99.90;;;;;;5020864;28;20025;-77
2022/12/21 06:48:26;;;;;;;19.77;19.08;;;5.50;99.90;;;;;;5028788;28;20017;-76
2022/12/21 06:50:53;;;;;;;19.30;18.60;;;5.40;99.90;;;;;;5012382;28;20022;-77
2022/12/21 06:53:20;;;;;;;20.05;19.35;;;5.40;99.90;;;;;;5025665;28;20033;-77
2022/12/21 06:55:46;;;;;;;19.17;18.38;;;5.50;99.90;;;;;;5012156;28;20029;-76
2022/12/21 06:58:11;;;;;;;19.58;18.88;;;5.50;99.90;;;;;;5015605;28;20235;-76
2022/12/21 07:00:37;;;;;;;21.83;21.02;;;5.50;99.90;;;;;;5004513;28;20034;-77
2022/12/21 07:03:03;;;;;;;23.90;22.52;;;5.50;99.90;;;;;;5025668;28;20539;-76
2022/12/21 07:05:29;;;;;;;20.33;19.63;;;5.50;99.90;;;;;;5005305;28;20025;-77
2022/12/21 07:07:54;;;;;;;20.70;19.90;;;5.60;99.90;;;;;;5002021;28;20112;-76
2022/12/21 07:10:20;;;;;;;20.80;19.67;;;5.60;99.90;;;;;;5015578;28;20022;-76
2022/12/21 07:12:45;;;;;;;21.38;20.20;;;5.50;99.90;;;;;;5003447;28;20025;-77
2022/12/21 07:15:11;;;;;;;20.65;19.88;;;5.60;99.90;;;;;;5011651;28;20026;-77
2022/12/21 07:17:36;;;;;;;21.80;20.90;;;5.60;99.90;;;;;;5033042;28;20491;-76
2022/12/21 07:20:02;;;;;;;23.05;22.02;;;5.50;99.90;;;;;;5028587;28;20026;-77
2022/12/21 07:22:28;;;;;;;22.75;21.75;;;5.60;99.90;;;;;;5021222;28;20097;-77
2022/12/21 07:24:54;;;;;;;20.77;19.98;;;5.50;99.90;;;;;;5020161;28;20037;-77
2022/12/21 07:27:19;;;;;;;24.00;22.50;;;5.40;99.90;;;;;;5013128;28;20053;-77
2022/12/21 07:29:45;;;;;;;19.63;18.92;;;5.70;99.90;;;;;;5013260;28;20391;-75
2022/12/21 07:32:10;;;;;;;20.00;19.23;;;5.60;99.90;;;;;;5015317;28;20545;-75
2022/12/21 07:34:36;;;;;;;21.75;20.25;;;5.70;99.90;;;;;;5021742;28;20096;-75
2022/12/21 07:37:01;;;;;;;19.10;18.30;;;5.60;99.90;;;;;;5006898;28;20084;-77
2022/12/21 07:39:27;;;;;;;18.23;17.52;;;5.60;99.90;;;;;;5011932;28;20034;-75
2022/12/21 07:41:52;;;;;;;21.15;20.15;;;5.70;99.90;;;;;;5028288;28;20072;-76
2022/12/21 07:44:18;;;;;;;20.52;19.73;;;5.60;99.90;;;;;;5022078;28;20499;-76
2022/12/21 07:46:44;;;;;;;22.42;21.33;;;5.70;99.90;;;;;;5025574;28;20029;-76
2022/12/21 07:49:09;;;;;;;20.67;19.88;;;5.70;99.90;;;;;;5022053;28;20018;-76
2022/12/21 07:51:35;;;;;;;25.08;23.92;;;5.60;99.90;;;;;;4995159;28;20499;-76
2022/12/21 07:54:01;;;;;;;21.30;20.50;;;5.60;99.90;;;;;;5021099;28;20030;-76
2022/12/21 07:56:26;;;;;;;28.45;27.05;;;5.60;99.90;;;;;;5015154;28;20028;-77
2022/12/21 07:58:52;;;;;;;22.30;21.50;;;5.70;99.90;;;;;;5002913;28;20025;-77
2022/12/21 08:01:18;;;;;;;21.10;20.30;;;5.70;99.90;;;;;;5017907;28;20037;-76
2022/12/21 08:03:45;;;;;;;22.13;21.30;;;5.70;99.90;;;;;;5021633;28;20033;-75
2022/12/21 08:06:12;;;;;;;22.17;21.27;;;5.60;99.90;;;;;;5011480;28;20030;-76
2022/12/21 08:08:38;;;;;;;22.63;21.58;;;5.70;99.90;;;;;;5010554;28;20387;-76
2022/12/21 08:11:09;;;;;;;24.40;23.40;;;5.70;99.90;;;;;;5014330;28;20026;-76
2022/12/21 08:13:35;;;;;;;21.70;20.80;;;5.70;99.90;;;;;;5020617;28;20030;-76
2022/12/21 08:16:05;;;;;;;22.27;21.38;;;5.80;99.90;;;;;;5014833;28;20046;-75
2022/12/21 08:18:32;;;;;;;21.58;20.77;;;5.80;99.90;;;;;;5019569;28;20435;-76
2022/12/21 08:20:58;;;;;;;20.70;19.90;;;5.80;99.90;;;;;;5006619;28;20030;-75
2022/12/21 08:23:24;;;;;;;21.42;20.48;;;5.80;99.90;;;;;;5001252;28;20559;-75
2022/12/21 08:25:50;;;;;;;21.60;20.80;;;5.80;99.90;;;;;;5024286;28;20068;-76
2022/12/21 08:28:16;;;;;;;21.10;20.30;;;5.90;99.90;;;;;;5013526;28;20018;-76
2022/12/21 08:30:42;;;;;;;21.77;20.98;;;5.80;99.90;;;;;;5014677;28;20018;-75
2022/12/21 08:33:09;;;;;;;21.38;20.55;;;5.80;99.90;;;;;;5005613;28;20037;-75
2022/12/21 08:35:35;;;;;;;21.95;21.15;;;5.90;99.90;;;;;;5014821;28;20403;-75
2022/12/21 08:38:00;;;;;;;23.23;22.35;;;5.80;99.90;;;;;;5012858;28;20018;-76
2022/12/21 08:40:26;;;;;;;21.20;20.40;;;5.80;99.90;;;;;;5014403;28;20044;-75
2022/12/21 08:42:51;;;;;;;21.85;21.05;;;5.90;99.90;;;;;;5007969;28;20037;-76
2022/12/21 08:45:17;;;;;;;22.20;21.40;;;5.90;99.90;;;;;;5030077;28;20025;-75
2022/12/21 08:47:42;;;;;;;22.02;21.23;;;5.80;99.90;;;;;;5004192;28;20499;-75
2022/12/21 08:50:08;;;;;;;20.90;20.10;;;5.80;99.90;;;;;;4999281;28;20028;-75
2022/12/21 08:52:34;;;;;;;23.77;22.77;;;5.90;99.90;;;;;;4997091;28;20030;-75
2022/12/21 08:54:59;;;;;;;28.27;26.67;;;5.80;99.90;;;;;;5014469;28;20025;-76
2022/12/21 08:57:25;;;;;;;23.23;22.33;;;5.90;99.90;;;;;;5024698;28;20091;-76
2022/12/21 08:59:51;;;;;;;23.10;22.02;;;5.90;99.90;;;;;;5017498;28;20029;-77
2022/12/21 09:02:17;;;;;;;22.20;21.20;;;6.00;99.90;;;;;;5003458;28;20048;-77
2022/12/21 09:04:42;;;;;;;23.70;22.80;;;5.90;99.90;;;;;;5017221;28;20032;-77
2022/12/21 09:07:08;;;;;;;22.30;21.42;;;6.00;99.90;;;;;;5024394;28;20075;-77
2022/12/21 09:09:34;;;;;;;22.15;21.35;;;6.00;99.90;;;;;;5028912;28;20037;-79
2022/12/21 09:12:00;;;;;;;23.55;22.65;;;6.00;99.90;;;;;;5008844;28;20028;-78
2022/12/21 09:14:28;;;;;;;25.25;24.25;;;6.00;99.90;;;;;;5002981;28;20033;-76
2022/12/21 09:16:54;;;;;;;23.60;22.60;;;6.00;99.90;;;;;;5033692;28;20036;-77
2022/12/21 09:19:20;;;;;;;24.00;23.05;;;6.00;99.90;;;;;;5029572;28;20033;-77
2022/12/21 09:21:46;;;;;;;24.20;23.30;;;6.10;99.90;;;;;;5025311;28;20035;-76
2022/12/21 09:24:11;;;;;;;22.70;21.83;;;6.00;99.90;;;;;;5002637;28;20026;-77
2022/12/21 09:26:37;;;;;;;29.08;27.25;;;6.10;99.90;;;;;;5004869;28;20048;-76
2022/12/21 09:29:02;;;;;;;24.40;23.50;;;6.10;99.90;;;;;;5018015;28;20033;-76
2022/12/21 09:31:28;;;;;;;24.30;23.40;;;6.10;99.90;;;;;;5022360;28;20033;-76
2022/12/21 09:33:55;;;;;;;22.92;22.08;;;6.10;99.90;;;;;;5017940;28;20036;-76
2022/12/21 09:36:21;;;;;;;24.67;23.67;;;6.10;99.90;;;;;;5033719;28;20086;-76
2022/12/21 09:38:47;;;;;;;25.58;24.60;;;6.20;99.90;;;;;;5018809;28;20422;-76
2022/12/21 09:41:36;;;;;;;24.92;24.02;;;6.20;99.90;;;;;;5021621;28;20469;-76
2022/12/21 09:44:11;;;;;;;25.80;24.60;;;6.10;99.90;;;;;;4995839;28;20030;-76
2022/12/21 09:46:41;;;;;;;24.67;23.67;;;6.20;99.90;;;;;;5011198;28;20030;-76
2022/12/21 09:49:50;;;;;;;24.77;23.88;;;6.20;99.90;;;;;;5023108;28;20048;-76
2022/12/21 09:52:23;;;;;;;23.85;22.95;;;6.20;99.90;;;;;;5001303;28;20227;-76
2022/12/21 09:55:10;;;;;;;24.63;23.63;;;6.20;99.90;;;;;;5012076;28;20034;-76
2022/12/21 09:57:36;;;;;;;26.23;25.23;;;6.20;99.90;;;;;;5019838;28;20029;-76
2022/12/21 10:00:12;;;;;;;25.30;24.30;;;6.20;99.90;;;;;;5008983;28;20033;-76
2022/12/21 10:03:00;;;;;;;24.80;23.90;;;6.20;99.90;;;;;;5009045;28;20386;-75
2022/12/21 10:05:43;;;;;;;25.15;24.15;;;6.30;99.90;;;;;;5023721;28;20383;-76
2022/12/21 10:08:25;;;;;;;35.08;33.70;;;6.10;99.90;;;;;;5013464;28;20053;-76
2022/12/21 10:11:04;;;;;;;25.27;24.08;;;6.30;99.90;;;;;;5012833;28;20018;-76
2022/12/21 10:13:39;;;;;;;27.67;26.02;;;6.30;99.90;;;;;;5012921;28;20108;-75
2022/12/21 10:16:08;;;;;;;23.80;22.85;;;6.30;99.90;;;;;;5015333;28;20084;-75
2022/12/21 10:18:40;;;;;;;23.38;22.48;;;6.40;99.90;;;;;;5014683;28;20056;-76
2022/12/21 10:21:20;;;;;;;23.00;22.00;;;6.30;99.90;;;;;;5014230;28;20061;-75
2022/12/21 10:23:49;;;;;;;22.50;21.70;;;6.40;99.90;;;;;;5000943;28;20030;-75
2022/12/21 10:26:19;;;;;;;21.98;21.17;;;6.40;99.90;;;;;;5012785;28;20022;-76
2022/12/21 10:29:02;;;;;;;24.23;23.33;;;6.30;99.90;;;;;;5027218;28;20037;-76
2022/12/21 10:31:44;;;;;;;26.85;25.80;;;6.40;99.90;;;;;;5032449;28;20018;-76
2022/12/21 10:34:31;;;;;;;23.85;22.95;;;6.30;99.90;;;;;;5032202;28;20474;-76
2022/12/21 10:37:01;;;;;;;23.33;22.42;;;6.30;99.90;;;;;;5014419;28;20048;-76
2022/12/21 10:39:29;;;;;;;24.52;23.63;;;6.30;99.90;;;;;;5032653;28;20021;-76
2022/12/21 10:42:03;;;;;;;28.90;27.38;;;6.30;99.90;;;;;;5016186;28;20030;-76
2022/12/21 10:44:29;;;;;;;24.80;23.88;;;6.40;99.90;;;;;;5022737;28;20436;-76
2022/12/21 10:46:54;;;;;;;25.30;24.30;;;6.40;99.90;;;;;;5014146;28;20061;-75
2022/12/21 10:49:33;;;;;;;25.88;24.88;;;6.40;99.90;;;;;;5021596;28;20468;-75
2022/12/21 10:51:58;;;;;;;26.88;25.73;;;6.40;99.90;;;;;;5017437;28;20022;-75
2022/12/21 10:54:27;;;;;;;25.23;24.27;;;6.40;99.90;;;;;;5020171;28;20164;-75
2022/12/21 10:56:53;;;;;;;25.10;24.20;;;6.40;99.90;;;;;;5011951;28;20097;-75
2022/12/21 10:59:26;;;;;;;24.52;23.58;;;6.40;99.90;;;;;;5012324;28;20108;-75
2022/12/21 11:01:52;;;;;;;26.80;25.70;;;6.40;99.90;;;;;;4999284;28;20049;-75
2022/12/21 11:04:24;;;;;;;26.77;25.27;;;6.50;99.90;;;;;;5012056;28;20034;-75
2022/12/21 11:07:03;;;;;;;26.77;25.70;;;6.60;99.90;;;;;;4982331;28;20022;-75
2022/12/21 11:09:39;;;;;;;23.40;22.50;;;6.50;99.90;;;;;;5012092;28;20013;-75
2022/12/21 11:12:22;;;;;;;23.90;22.95;;;6.50;99.90;;;;;;4994436;28;20028;-75
2022/12/21 11:14:51;;;;;;;25.25;24.25;;;6.50;99.90;;;;;;4999384;28;20045;-75
2022/12/21 11:17:22;;;;;;;24.75;23.85;;;6.50;99.90;;;;;;5022987;28;20400;-75
2022/12/21 11:20:00;;;;;;;25.75;24.70;;;6.50;99.90;;;;;;5012062;28;20025;-75
2022/12/21 11:22:28;;;;;;;24.60;23.70;;;6.60;99.90;;;;;;5011736;28;20029;-75
2022/12/21 11:24:57;;;;;;;25.52;24.52;;;6.50;99.90;;;;;;5021929;28;20049;-75
2022/12/21 11:27:31;;;;;;;25.10;24.20;;;6.50;99.90;;;;;;5017997;28;20024;-75
2022/12/21 11:30:09;;;;;;;25.13;24.23;;;6.60;99.90;;;;;;5001862;28;20121;-75
2022/12/21 11:32:42;;;;;;;25.65;24.65;;;6.50;99.90;;;;;;5011586;28;20026;-75
2022/12/21 11:35:24;;;;;;;24.35;23.25;;;6.50;99.90;;;;;;4993860;28;20030;-75
2022/12/21 11:38:16;;;;;;;25.10;24.10;;;6.50;99.90;;;;;;5010367;28;20032;-75
2022/12/21 11:40:56;;;;;;;27.25;26.25;;;6.50;99.90;;;;;;4991088;28;20034;-74
2022/12/21 11:43:22;;;;;;;25.65;24.65;;;6.50;99.90;;;;;;5013672;28;20037;-75
2022/12/21 11:46:05;;;;;;;24.70;23.80;;;6.60;99.90;;;;;;5005253;28;20018;-76
2022/12/21 11:48:58;;;;;;;25.13;24.23;;;6.60;99.90;;;;;;5014449;28;20030;-75
2022/12/21 11:51:49;;;;;;;25.10;24.20;;;6.60;99.90;;;;;;5030549;28;20028;-75
2022/12/21 11:54:23;;;;;;;25.75;24.75;;;6.50;99.90;;;;;;5011571;28;20476;-75
2022/12/21 11:57:26;;;;;;;27.48;26.48;;;6.60;99.90;;;;;;5011273;28;20026;-75
2022/12/21 12:00:02;;;;;;;23.58;22.50;;;6.60;99.90;;;;;;5011608;28;20546;-75
2022/12/21 12:02:33;;;;;;;26.08;24.88;;;6.60;99.90;;;;;;4996028;28;20088;-75
2022/12/21 12:05:22;;;;;;;24.30;23.40;;;6.60;99.90;;;;;;4997581;28;20041;-75
2022/12/21 12:07:54;;;;;;;26.88;25.88;;;6.60;99.90;;;;;;5015105;28;20024;-76
2022/12/21 12:11:01;;;;;;;25.77;24.80;;;6.60;99.90;;;;;;5015424;28;20033;-75
2022/12/21 12:13:45;;;;;;;28.20;27.10;;;6.60;99.90;;;;;;5004671;28;20029;-75
2022/12/21 12:16:28;;;;;;;27.75;26.70;;;6.50;99.90;;;;;;5000969;28;20037;-76
2022/12/21 12:19:24;;;;;;;27.98;26.90;;;6.60;99.90;;;;;;5020930;28;20025;-75
2022/12/21 12:22:17;;;;;;;25.60;24.58;;;6.60;99.90;;;;;;5015222;28;20033;-75
2022/12/21 12:25:09;;;;;;;26.90;25.90;;;6.70;99.90;;;;;;5022286;28;20044;-76
2022/12/21 12:27:58;;;;;;;23.83;22.92;;;6.70;99.90;;;;;;5034413;28;20395;-73
2022/12/21 12:30:34;;;;;;;24.50;23.50;;;6.70;99.90;;;;;;5034758;28;20025;-75
2022/12/21 12:33:11;;;;;;;25.98;24.98;;;6.80;99.90;;;;;;5025344;28;20049;-75
2022/12/21 12:35:52;;;;;;;25.40;24.45;;;6.70;99.90;;;;;;5029103;28;20491;-75
2022/12/21 12:38:35;;;;;;;26.27;25.27;;;6.70;99.90;;;;;;5018670;28;20476;-76
2022/12/21 12:41:06;;;;;;;26.15;25.15;;;6.80;99.90;;;;;;4992170;28;20017;-75
2022/12/21 12:43:54;;;;;;;26.08;25.08;;;6.70;99.90;;;;;;5032569;28;20036;-76
2022/12/21 12:46:29;;;;;;;25.52;24.52;;;6.70;99.90;;;;;;5002583;28;20431;-76
2022/12/21 12:49:02;;;;;;;25.20;24.30;;;6.60;99.90;;;;;;4998714;28;20040;-76
2022/12/21 12:51:46;;;;;;;25.90;24.90;;;6.70;99.90;;;;;;5027830;28;20368;-76
2022/12/21 12:54:26;;;;;;;24.73;23.60;;;6.70;99.90;;;;;;5014848;28;20056;-76
2022/12/21 12:57:20;;;;;;;29.02;27.20;;;6.80;99.90;;;;;;5015015;28;20391;-76
2022/12/21 13:00:08;;;;;;;26.95;25.95;;;6.80;99.90;;;;;;5011255;28;20040;-75
2022/12/21 13:03:09;;;;;;;25.50;24.50;;;6.70;99.90;;;;;;5016310;28;20025;-76
2022/12/21 13:05:51;;;;;;;26.27;25.27;;;6.80;99.90;;;;;;5016036;28;20095;-75
2022/12/21 13:08:38;;;;;;;24.35;23.45;;;6.80;99.90;;;;;;5015830;28;20025;-75
2022/12/21 13:11:23;;;;;;;24.30;23.40;;;6.80;99.90;;;;;;5020958;28;20037;-76
2022/12/21 13:14:08;;;;;;;22.92;22.08;;;6.70;99.90;;;;;;5003938;28;20037;-77
2022/12/21 13:16:55;;;;;;;21.75;20.95;;;6.90;99.90;;;;;;5032697;28;20028;-76